sensor_id;sensor_type;location;lat;lon;timestamp;P1;durP1;ratioP1;P2;durP2;ratioP2
14324;SDS011;7246;51.922;4.488;2022-07-23T00:00:39;1999.9;;;999.9;;
14324;SDS011;7246;51.922;4.488;2022-07-23T00:02:39;1999.9;;;999.9;;
14324;SDS011;7246;51.922;4.488;2022-07-23T00:04:39;1999.9;;;999.9;;
14324;SDS011;7246;51.922;4.488;2022-07-23T00:06:39;1999.9;;;999.9;;
14324;SDS011;7246;51.922;4.488;2022-07-23T00:08:39;1999.9;;;999.9;;
14324;SDS011;7246;51.922;4.488;2022-07-23T00:10:39;1999.9;;;999.9;;
14324;SDS011;7246;51.922;4.488;2022-07-23T00:12:39;1999.9;;;999.9;;
14324;SDS011;7246;51.922;4.488;2022-07-23T00:14:39;1999.9;;;999.9;;
14324;SDS011;7246;51.922;4.488;2022-07-23T00:16:39;1999.9;;;999.9;;
14324;SDS011;7246;51.922;4.488;2022-07-23T00:18:39;1999.9;;;999.9;;
14324;SDS011;7246;51.922;4.488;2022-07-23T00:20:39;1999.9;;;999.9;;
14324;SDS011;7246;51.922;4.488;2022-07-23T00:22:45;1999.9;;;999.9;;
14324;SDS011;7246;51.922;4.488;2022-07-23T00:24:39;1999.9;;;999.9;;
14324;SDS011;7246;51.922;4.488;2022-07-23T00:26:39;1999.9;;;999.9;;
14324;SDS011;7246;51.922;4.488;2022-07-23T00:28:39;1999.9;;;999.9;;
14324;SDS011;7246;51.922;4.488;2022-07-23T00:30:39;1999.9;;;999.9;;
14324;SDS011;7246;51.922;4.488;2022-07-23T00:32:47;1938.8;;;999.9;;
14324;SDS011;7246;51.922;4.488;2022-07-23T00:34:39;1955.6;;;999.9;;
14324;SDS011;7246;51.922;4.488;2022-07-23T00:36:39;1985.6;;;999.9;;
14324;SDS011;7246;51.922;4.488;2022-07-23T00:38:39;1999.9;;;999.9;;
14324;SDS011;7246;51.922;4.488;2022-07-23T00:40:39;1999.9;;;999.9;;
14324;SDS011;7246;51.922;4.488;2022-07-23T00:42:39;1999.9;;;999.9;;
14324;SDS011;7246;51.922;4.488;2022-07-23T00:44:39;1999.9;;;999.9;;
14324;SDS011;7246;51.922;4.488;2022-07-23T00:46:44;1999.9;;;999.9;;
14324;SDS011;7246;51.922;4.488;2022-07-23T00:48:39;1999.9;;;999.9;;
14324;SDS011;7246;51.922;4.488;2022-07-23T00:50:39;1999.9;;;999.9;;
14324;SDS011;7246;51.922;4.488;2022-07-23T00:52:39;1999.9;;;999.9;;
14324;SDS011;7246;51.922;4.488;2022-07-23T00:54:39;1999.9;;;999.9;;
14324;SDS011;7246;51.922;4.488;2022-07-23T01:02:40;1999.9;;;999.9;;
14324;SDS011;7246;51.922;4.488;2022-07-23T01:04:40;1999.9;;;999.9;;
14324;SDS011;7246;51.922;4.488;2022-07-23T01:06:39;1999.9;;;999.9;;
14324;SDS011;7246;51.922;4.488;2022-07-23T01:08:39;1999.9;;;999.9;;
14324;SDS011;7246;51.922;4.488;2022-07-23T01:10:39;1999.9;;;999.9;;
14324;SDS011;7246;51.922;4.488;2022-07-23T01:12:39;1999.9;;;999.9;;
14324;SDS011;7246;51.922;4.488;2022-07-23T01:14:39;1999.9;;;999.9;;
14324;SDS011;7246;51.922;4.488;2022-07-23T01:16:39;1999.9;;;999.9;;
14324;SDS011;7246;51.922;4.488;2022-07-23T01:18:39;1999.9;;;999.9;;
14324;SDS011;7246;51.922;4.488;2022-07-23T01:20:39;1999.9;;;999.9;;
14324;SDS011;7246;51.922;4.488;2022-07-23T01:22:40;1999.9;;;999.9;;
14324;SDS011;7246;51.922;4.488;2022-07-23T01:24:39;1999.9;;;999.9;;
14324;SDS011;7246;51.922;4.488;2022-07-23T01:26:40;1999.9;;;999.9;;
14324;SDS011;7246;51.922;4.488;2022-07-23T01:28:39;1999.9;;;999.9;;
14324;SDS011;7246;51.922;4.488;2022-07-23T01:30:39;1999.9;;;999.9;;
14324;SDS011;7246;51.922;4.488;2022-07-23T01:32:40;1999.9;;;999.9;;
14324;SDS011;7246;51.922;4.488;2022-07-23T01:34:40;1999.9;;;999.9;;
14324;SDS011;7246;51.922;4.488;2022-07-23T01:36:40;1999.9;;;999.9;;
14324;SDS011;7246;51.922;4.488;2022-07-23T01:38:40;1999.9;;;999.9;;
14324;SDS011;7246;51.922;4.488;2022-07-23T01:40:40;1999.9;;;999.9;;
14324;SDS011;7246;51.922;4.488;2022-07-23T01:42:40;1999.9;;;999.9;;
14324;SDS011;7246;51.922;4.488;2022-07-23T01:44:40;1999.9;;;999.9;;
14324;SDS011;7246;51.922;4.488;2022-07-23T01:46:40;1999.9;;;999.9;;
14324;SDS011;7246;51.922;4.488;2022-07-23T01:48:40;1999.9;;;999.9;;
14324;SDS011;7246;51.922;4.488;2022-07-23T01:50:40;1999.9;;;999.9;;
14324;SDS011;7246;51.922;4.488;2022-07-23T01:52:40;1999.9;;;999.9;;
14324;SDS011;7246;51.922;4.488;2022-07-23T01:54:40;1999.9;;;999.9;;
14324;SDS011;7246;51.922;4.488;2022-07-23T01:56:40;1999.9;;;999.9;;
14324;SDS011;7246;51.922;4.488;2022-07-23T01:58:40;1999.9;;;999.9;;
14324;SDS011;7246;51.922;4.488;2022-07-23T02:00:40;1999.9;;;999.9;;
14324;SDS011;7246;51.922;4.488;2022-07-23T02:02:40;1999.9;;;999.9;;
14324;SDS011;7246;51.922;4.488;2022-07-23T02:04:40;1999.9;;;999.9;;
14324;SDS011;7246;51.922;4.488;2022-07-23T02:06:40;1999.9;;;999.9;;
14324;SDS011;7246;51.922;4.488;2022-07-23T02:08:40;1999.9;;;999.9;;
14324;SDS011;7246;51.922;4.488;2022-07-23T02:10:40;1999.9;;;999.9;;
14324;SDS011;7246;51.922;4.488;2022-07-23T02:12:40;1999.9;;;999.9;;
14324;SDS011;7246;51.922;4.488;2022-07-23T02:14:40;1999.9;;;999.9;;
14324;SDS011;7246;51.922;4.488;2022-07-23T02:16:40;1999.9;;;999.9;;
14324;SDS011;7246;51.922;4.488;2022-07-23T02:18:40;1999.9;;;999.9;;
14324;SDS011;7246;51.922;4.488;2022-07-23T02:20:40;1999.9;;;999.9;;
14324;SDS011;7246;51.922;4.488;2022-07-23T02:22:40;1999.9;;;999.9;;
14324;SDS011;7246;51.922;4.488;2022-07-23T02:24:40;1999.9;;;999.9;;
14324;SDS011;7246;51.922;4.488;2022-07-23T02:26:40;1999.9;;;999.9;;
14324;SDS011;7246;51.922;4.488;2022-07-23T02:28:40;1999.9;;;999.9;;
14324;SDS011;7246;51.922;4.488;2022-07-23T02:30:40;1999.9;;;999.9;;
14324;SDS011;7246;51.922;4.488;2022-07-23T02:32:40;1999.9;;;999.9;;
14324;SDS011;7246;51.922;4.488;2022-07-23T02:34:40;1999.9;;;999.9;;
14324;SDS011;7246;51.922;4.488;2022-07-23T02:36:40;1999.9;;;999.9;;
14324;SDS011;7246;51.922;4.488;2022-07-23T02:38:40;1999.9;;;999.9;;
14324;SDS011;7246;51.922;4.488;2022-07-23T02:40:40;1999.9;;;999.9;;
14324;SDS011;7246;51.922;4.488;2022-07-23T02:42:40;1999.9;;;999.9;;
14324;SDS011;7246;51.922;4.488;2022-07-23T02:44:40;1999.9;;;999.9;;
14324;SDS011;7246;51.922;4.488;2022-07-23T02:46:40;1999.9;;;999.9;;
14324;SDS011;7246;51.922;4.488;2022-07-23T02:48:40;1999.9;;;999.9;;
14324;SDS011;7246;51.922;4.488;2022-07-23T02:50:40;1999.9;;;999.9;;
14324;SDS011;7246;51.922;4.488;2022-07-23T02:52:40;1999.9;;;999.9;;
14324;SDS011;7246;51.922;4.488;2022-07-23T02:54:40;1999.9;;;999.9;;
14324;SDS011;7246;51.922;4.488;2022-07-23T02:56:40;1999.9;;;999.9;;
14324;SDS011;7246;51.922;4.488;2022-07-23T02:58:41;1999.9;;;999.9;;
14324;SDS011;7246;51.922;4.488;2022-07-23T03:00:40;1999.9;;;999.9;;
14324;SDS011;7246;51.922;4.488;2022-07-23T03:02:40;1999.9;;;999.9;;
14324;SDS011;7246;51.922;4.488;2022-07-23T03:04:40;1999.9;;;999.9;;
14324;SDS011;7246;51.922;4.488;2022-07-23T03:06:41;1999.9;;;999.9;;
14324;SDS011;7246;51.922;4.488;2022-07-23T03:08:41;1999.9;;;999.9;;
14324;SDS011;7246;51.922;4.488;2022-07-23T03:10:41;1999.9;;;999.9;;
14324;SDS011;7246;51.922;4.488;2022-07-23T03:12:41;1999.9;;;999.9;;
14324;SDS011;7246;51.922;4.488;2022-07-23T03:14:41;1999.9;;;999.9;;
14324;SDS011;7246;51.922;4.488;2022-07-23T03:16:41;1999.9;;;999.9;;
14324;SDS011;7246;51.922;4.488;2022-07-23T03:18:41;1999.9;;;999.9;;
14324;SDS011;7246;51.922;4.488;2022-07-23T03:20:41;1999.9;;;999.9;;
14324;SDS011;7246;51.922;4.488;2022-07-23T03:22:41;1999.9;;;999.9;;
14324;SDS011;7246;51.922;4.488;2022-07-23T03:24:41;1999.9;;;999.9;;
14324;SDS011;7246;51.922;4.488;2022-07-23T03:26:41;1999.9;;;999.9;;
14324;SDS011;7246;51.922;4.488;2022-07-23T03:28:41;1999.9;;;999.9;;
14324;SDS011;7246;51.922;4.488;2022-07-23T03:30:41;1999.9;;;999.9;;
14324;SDS011;7246;51.922;4.488;2022-07-23T03:32:41;1999.9;;;999.9;;
14324;SDS011;7246;51.922;4.488;2022-07-23T03:34:41;1999.9;;;999.9;;
14324;SDS011;7246;51.922;4.488;2022-07-23T03:36:41;1999.9;;;999.9;;
14324;SDS011;7246;51.922;4.488;2022-07-23T03:38:41;1999.9;;;999.9;;
14324;SDS011;7246;51.922;4.488;2022-07-23T03:40:41;1999.9;;;999.9;;
14324;SDS011;7246;51.922;4.488;2022-07-23T03:42:41;1999.9;;;999.9;;
14324;SDS011;7246;51.922;4.488;2022-07-23T03:44:41;1999.9;;;999.9;;
14324;SDS011;7246;51.922;4.488;2022-07-23T03:46:41;1999.9;;;999.9;;
14324;SDS011;7246;51.922;4.488;2022-07-23T03:48:41;1999.9;;;999.9;;
14324;SDS011;7246;51.922;4.488;2022-07-23T03:50:41;1999.9;;;999.9;;
14324;SDS011;7246;51.922;4.488;2022-07-23T03:52:41;1999.9;;;999.9;;
14324;SDS011;7246;51.922;4.488;2022-07-23T03:54:41;1999.9;;;999.9;;
14324;SDS011;7246;51.922;4.488;2022-07-23T03:56:41;1999.9;;;999.9;;
14324;SDS011;7246;51.922;4.488;2022-07-23T03:58:41;1999.9;;;999.9;;
14324;SDS011;7246;51.922;4.488;2022-07-23T04:00:41;1999.9;;;999.9;;
14324;SDS011;7246;51.922;4.488;2022-07-23T04:02:41;1999.9;;;999.9;;
14324;SDS011;7246;51.922;4.488;2022-07-23T04:04:41;1999.9;;;999.9;;
14324;SDS011;7246;51.922;4.488;2022-07-23T04:06:41;1999.9;;;999.9;;
14324;SDS011;7246;51.922;4.488;2022-07-23T04:08:41;1999.9;;;999.9;;
14324;SDS011;7246;51.922;4.488;2022-07-23T04:10:41;1999.9;;;999.9;;
14324;SDS011;7246;51.922;4.488;2022-07-23T04:12:41;1999.9;;;999.9;;
14324;SDS011;7246;51.922;4.488;2022-07-23T04:14:41;1999.9;;;999.9;;
14324;SDS011;7246;51.922;4.488;2022-07-23T04:16:41;1999.9;;;999.9;;
14324;SDS011;7246;51.922;4.488;2022-07-23T04:18:42;1999.9;;;999.9;;
14324;SDS011;7246;51.922;4.488;2022-07-23T04:20:41;1999.9;;;999.9;;
14324;SDS011;7246;51.922;4.488;2022-07-23T04:22:41;1999.9;;;999.9;;
14324;SDS011;7246;51.922;4.488;2022-07-23T04:24:41;1999.9;;;999.9;;
14324;SDS011;7246;51.922;4.488;2022-07-23T04:26:41;1999.9;;;999.9;;
14324;SDS011;7246;51.922;4.488;2022-07-23T04:28:42;1999.9;;;999.9;;
14324;SDS011;7246;51.922;4.488;2022-07-23T04:30:41;1999.9;;;999.9;;
14324;SDS011;7246;51.922;4.488;2022-07-23T04:32:42;1999.9;;;999.9;;
14324;SDS011;7246;51.922;4.488;2022-07-23T04:34:42;1999.9;;;999.9;;
14324;SDS011;7246;51.922;4.488;2022-07-23T04:36:42;1999.9;;;999.9;;
14324;SDS011;7246;51.922;4.488;2022-07-23T04:38:42;1999.9;;;999.9;;
14324;SDS011;7246;51.922;4.488;2022-07-23T04:40:42;1999.9;;;999.9;;
14324;SDS011;7246;51.922;4.488;2022-07-23T04:42:42;1999.9;;;999.9;;
14324;SDS011;7246;51.922;4.488;2022-07-23T04:44:42;1999.9;;;999.9;;
14324;SDS011;7246;51.922;4.488;2022-07-23T04:46:42;1999.9;;;999.9;;
14324;SDS011;7246;51.922;4.488;2022-07-23T04:48:42;1999.9;;;999.9;;
14324;SDS011;7246;51.922;4.488;2022-07-23T04:50:42;1999.9;;;999.9;;
14324;SDS011;7246;51.922;4.488;2022-07-23T04:52:42;1999.9;;;999.9;;
14324;SDS011;7246;51.922;4.488;2022-07-23T04:54:42;1999.9;;;999.9;;
14324;SDS011;7246;51.922;4.488;2022-07-23T04:56:42;1999.9;;;999.9;;
14324;SDS011;7246;51.922;4.488;2022-07-23T04:58:42;1999.9;;;999.9;;
14324;SDS011;7246;51.922;4.488;2022-07-23T05:00:42;1999.9;;;999.9;;
14324;SDS011;7246;51.922;4.488;2022-07-23T05:02:42;1999.9;;;999.9;;
14324;SDS011;7246;51.922;4.488;2022-07-23T05:04:42;1999.9;;;999.9;;
14324;SDS011;7246;51.922;4.488;2022-07-23T05:06:42;1999.9;;;999.9;;
14324;SDS011;7246;51.922;4.488;2022-07-23T05:08:42;1999.9;;;999.9;;
14324;SDS011;7246;51.922;4.488;2022-07-23T05:10:42;1999.9;;;999.9;;
14324;SDS011;7246;51.922;4.488;2022-07-23T05:12:42;1999.9;;;999.9;;
14324;SDS011;7246;51.922;4.488;2022-07-23T05:14:42;1999.9;;;999.9;;
14324;SDS011;7246;51.922;4.488;2022-07-23T05:16:42;1999.9;;;999.9;;
14324;SDS011;7246;51.922;4.488;2022-07-23T05:18:42;1999.9;;;999.9;;
14324;SDS011;7246;51.922;4.488;2022-07-23T05:20:42;1999.9;;;999.9;;
14324;SDS011;7246;51.922;4.488;2022-07-23T05:22:42;1999.9;;;999.9;;
14324;SDS011;7246;51.922;4.488;2022-07-23T05:24:42;1999.9;;;999.9;;
14324;SDS011;7246;51.922;4.488;2022-07-23T05:26:42;1999.9;;;999.9;;
14324;SDS011;7246;51.922;4.488;2022-07-23T05:28:42;1999.9;;;999.9;;
14324;SDS011;7246;51.922;4.488;2022-07-23T05:30:42;1999.9;;;999.9;;
14324;SDS011;7246;51.922;4.488;2022-07-23T05:32:42;1999.9;;;999.9;;
14324;SDS011;7246;51.922;4.488;2022-07-23T05:34:42;1999.9;;;999.9;;
14324;SDS011;7246;51.922;4.488;2022-07-23T05:36:42;1999.9;;;999.9;;
14324;SDS011;7246;51.922;4.488;2022-07-23T05:38:42;1999.9;;;999.9;;
14324;SDS011;7246;51.922;4.488;2022-07-23T05:40:42;1999.9;;;999.9;;
14324;SDS011;7246;51.922;4.488;2022-07-23T05:42:42;1999.9;;;999.9;;
14324;SDS011;7246;51.922;4.488;2022-07-23T05:44:42;1999.9;;;999.9;;
14324;SDS011;7246;51.922;4.488;2022-07-23T05:46:43;1999.9;;;999.9;;
14324;SDS011;7246;51.922;4.488;2022-07-23T05:48:42;1999.9;;;999.9;;
14324;SDS011;7246;51.922;4.488;2022-07-23T05:50:42;1999.9;;;999.9;;
14324;SDS011;7246;51.922;4.488;2022-07-23T05:52:43;1999.9;;;999.9;;
14324;SDS011;7246;51.922;4.488;2022-07-23T05:54:42;1999.9;;;999.9;;
14324;SDS011;7246;51.922;4.488;2022-07-23T05:56:42;1999.9;;;999.9;;
14324;SDS011;7246;51.922;4.488;2022-07-23T05:58:42;1999.9;;;999.9;;
14324;SDS011;7246;51.922;4.488;2022-07-23T06:00:42;1999.9;;;999.9;;
14324;SDS011;7246;51.922;4.488;2022-07-23T06:02:42;1999.9;;;999.9;;
14324;SDS011;7246;51.922;4.488;2022-07-23T06:04:42;1999.9;;;999.9;;
14324;SDS011;7246;51.922;4.488;2022-07-23T06:06:42;1999.9;;;999.9;;
14324;SDS011;7246;51.922;4.488;2022-07-23T06:08:43;1999.9;;;999.9;;
14324;SDS011;7246;51.922;4.488;2022-07-23T06:10:43;1999.9;;;999.9;;
14324;SDS011;7246;51.922;4.488;2022-07-23T06:12:43;1999.9;;;999.9;;
14324;SDS011;7246;51.922;4.488;2022-07-23T06:14:43;1999.9;;;999.9;;
14324;SDS011;7246;51.922;4.488;2022-07-23T06:16:43;1999.9;;;999.9;;
14324;SDS011;7246;51.922;4.488;2022-07-23T06:18:43;1999.9;;;999.9;;
14324;SDS011;7246;51.922;4.488;2022-07-23T06:20:43;1999.9;;;999.9;;
14324;SDS011;7246;51.922;4.488;2022-07-23T06:22:43;1999.9;;;999.9;;
14324;SDS011;7246;51.922;4.488;2022-07-23T06:24:43;1999.9;;;999.9;;
14324;SDS011;7246;51.922;4.488;2022-07-23T06:26:43;1999.9;;;999.9;;
14324;SDS011;7246;51.922;4.488;2022-07-23T06:28:43;1999.9;;;999.9;;
14324;SDS011;7246;51.922;4.488;2022-07-23T06:30:43;1999.9;;;999.9;;
14324;SDS011;7246;51.922;4.488;2022-07-23T06:32:43;1999.9;;;999.9;;
14324;SDS011;7246;51.922;4.488;2022-07-23T06:34:43;1999.9;;;999.9;;
14324;SDS011;7246;51.922;4.488;2022-07-23T06:36:43;1999.9;;;999.9;;
14324;SDS011;7246;51.922;4.488;2022-07-23T06:38:43;1999.9;;;999.9;;
14324;SDS011;7246;51.922;4.488;2022-07-23T06:40:43;1999.9;;;999.9;;
14324;SDS011;7246;51.922;4.488;2022-07-23T06:42:43;1999.9;;;999.9;;
14324;SDS011;7246;51.922;4.488;2022-07-23T06:44:43;1999.9;;;999.9;;
14324;SDS011;7246;51.922;4.488;2022-07-23T06:46:43;1999.9;;;999.9;;
14324;SDS011;7246;51.922;4.488;2022-07-23T06:48:43;1999.9;;;999.9;;
14324;SDS011;7246;51.922;4.488;2022-07-23T06:50:43;1999.9;;;999.9;;
14324;SDS011;7246;51.922;4.488;2022-07-23T06:52:43;1999.9;;;999.9;;
14324;SDS011;7246;51.922;4.488;2022-07-23T06:54:43;1999.9;;;999.9;;
14324;SDS011;7246;51.922;4.488;2022-07-23T06:56:43;1999.9;;;999.9;;
14324;SDS011;7246;51.922;4.488;2022-07-23T06:58:43;1999.9;;;999.9;;
14324;SDS011;7246;51.922;4.488;2022-07-23T07:00:43;1999.9;;;999.9;;
14324;SDS011;7246;51.922;4.488;2022-07-23T07:02:43;1999.9;;;999.9;;
14324;SDS011;7246;51.922;4.488;2022-07-23T07:04:43;1999.9;;;999.9;;
14324;SDS011;7246;51.922;4.488;2022-07-23T07:06:43;1999.9;;;999.9;;
14324;SDS011;7246;51.922;4.488;2022-07-23T07:08:43;1999.9;;;999.9;;
14324;SDS011;7246;51.922;4.488;2022-07-23T07:10:43;1999.9;;;999.9;;
14324;SDS011;7246;51.922;4.488;2022-07-23T07:12:43;1999.9;;;999.9;;
14324;SDS011;7246;51.922;4.488;2022-07-23T07:14:44;1999.9;;;999.9;;
14324;SDS011;7246;51.922;4.488;2022-07-23T07:16:43;1995.4;;;999.9;;
14324;SDS011;7246;51.922;4.488;2022-07-23T07:18:43;1996.2;;;999.9;;
14324;SDS011;7246;51.922;4.488;2022-07-23T07:20:43;1999.9;;;999.9;;
14324;SDS011;7246;51.922;4.488;2022-07-23T07:22:43;1999.9;;;999.9;;
14324;SDS011;7246;51.922;4.488;2022-07-23T07:24:43;1999.9;;;999.9;;
14324;SDS011;7246;51.922;4.488;2022-07-23T07:26:43;1999.9;;;999.9;;
14324;SDS011;7246;51.922;4.488;2022-07-23T07:28:43;1999.9;;;999.9;;
14324;SDS011;7246;51.922;4.488;2022-07-23T07:30:43;1999.9;;;999.9;;
14324;SDS011;7246;51.922;4.488;2022-07-23T07:32:43;1981.5;;;999.9;;
14324;SDS011;7246;51.922;4.488;2022-07-23T07:34:43;1997.2;;;999.9;;
14324;SDS011;7246;51.922;4.488;2022-07-23T07:36:43;1995.6;;;999.9;;
14324;SDS011;7246;51.922;4.488;2022-07-23T07:38:43;1958.0;;;999.9;;
14324;SDS011;7246;51.922;4.488;2022-07-23T07:40:44;1988.6;;;999.9;;
14324;SDS011;7246;51.922;4.488;2022-07-23T07:42:44;1951.4;;;999.9;;
14324;SDS011;7246;51.922;4.488;2022-07-23T07:44:44;1935.7;;;999.9;;
14324;SDS011;7246;51.922;4.488;2022-07-23T07:46:44;1883.5;;;999.9;;
14324;SDS011;7246;51.922;4.488;2022-07-23T07:48:44;1868.1;;;999.9;;
14324;SDS011;7246;51.922;4.488;2022-07-23T07:50:44;1843.0;;;999.9;;
14324;SDS011;7246;51.922;4.488;2022-07-23T07:52:44;1821.1;;;999.9;;
14324;SDS011;7246;51.922;4.488;2022-07-23T07:54:44;1791.6;;;999.9;;
14324;SDS011;7246;51.922;4.488;2022-07-23T07:56:44;1783.3;;;999.9;;
14324;SDS011;7246;51.922;4.488;2022-07-23T07:58:44;1800.5;;;999.9;;
14324;SDS011;7246;51.922;4.488;2022-07-23T08:00:44;1757.6;;;999.9;;
14324;SDS011;7246;51.922;4.488;2022-07-23T08:02:44;1685.1;;;999.9;;
14324;SDS011;7246;51.922;4.488;2022-07-23T08:04:44;1652.3;;;999.9;;
14324;SDS011;7246;51.922;4.488;2022-07-23T08:06:44;1651.6;;;999.9;;
14324;SDS011;7246;51.922;4.488;2022-07-23T08:08:44;1628.0;;;999.9;;
14324;SDS011;7246;51.922;4.488;2022-07-23T08:10:44;1610.3;;;999.9;;
14324;SDS011;7246;51.922;4.488;2022-07-23T08:12:44;1534.9;;;999.9;;
14324;SDS011;7246;51.922;4.488;2022-07-23T08:14:44;1542.3;;;999.9;;
14324;SDS011;7246;51.922;4.488;2022-07-23T08:16:44;1556.0;;;999.9;;
14324;SDS011;7246;51.922;4.488;2022-07-23T08:18:44;1533.9;;;999.9;;
14324;SDS011;7246;51.922;4.488;2022-07-23T08:20:44;1511.7;;;999.9;;
14324;SDS011;7246;51.922;4.488;2022-07-23T08:22:45;1520.3;;;999.9;;
14324;SDS011;7246;51.922;4.488;2022-07-23T08:24:44;1490.3;;;999.9;;
14324;SDS011;7246;51.922;4.488;2022-07-23T08:26:44;1449.2;;;999.9;;
14324;SDS011;7246;51.922;4.488;2022-07-23T08:28:44;1433.0;;;999.9;;
14324;SDS011;7246;51.922;4.488;2022-07-23T08:30:44;1420.5;;;999.9;;
14324;SDS011;7246;51.922;4.488;2022-07-23T08:32:52;1397.5;;;999.9;;
14324;SDS011;7246;51.922;4.488;2022-07-23T08:34:44;1373.2;;;999.9;;
14324;SDS011;7246;51.922;4.488;2022-07-23T08:36:44;1340.2;;;999.9;;
14324;SDS011;7246;51.922;4.488;2022-07-23T08:38:44;1306.6;;;999.9;;
14324;SDS011;7246;51.922;4.488;2022-07-23T08:40:46;1288.9;;;999.9;;
14324;SDS011;7246;51.922;4.488;2022-07-23T08:42:45;1285.1;;;999.9;;
14324;SDS011;7246;51.922;4.488;2022-07-23T08:44:45;1277.5;;;999.9;;
14324;SDS011;7246;51.922;4.488;2022-07-23T08:46:44;1265.6;;;999.9;;
14324;SDS011;7246;51.922;4.488;2022-07-23T08:48:44;1246.2;;;999.9;;
14324;SDS011;7246;51.922;4.488;2022-07-23T08:50:45;1271.6;;;999.9;;
14324;SDS011;7246;51.922;4.488;2022-07-23T08:52:44;1268.8;;;999.9;;
14324;SDS011;7246;51.922;4.488;2022-07-23T08:54:44;1266.5;;;999.9;;
14324;SDS011;7246;51.922;4.488;2022-07-23T08:56:44;1242.3;;;999.9;;
14324;SDS011;7246;51.922;4.488;2022-07-23T08:58:44;1245.3;;;999.9;;
14324;SDS011;7246;51.922;4.488;2022-07-23T09:00:45;1272.2;;;999.9;;
14324;SDS011;7246;51.922;4.488;2022-07-23T09:02:45;1244.1;;;999.9;;
14324;SDS011;7246;51.922;4.488;2022-07-23T09:04:45;1238.2;;;999.9;;
14324;SDS011;7246;51.922;4.488;2022-07-23T09:06:45;1213.8;;;999.9;;
14324;SDS011;7246;51.922;4.488;2022-07-23T09:08:45;1188.8;;;999.9;;
14324;SDS011;7246;51.922;4.488;2022-07-23T09:10:45;1152.6;;;999.9;;
14324;SDS011;7246;51.922;4.488;2022-07-23T09:12:45;1142.8;;;997.5;;
14324;SDS011;7246;51.922;4.488;2022-07-23T09:14:45;1109.1;;;969.6;;
14324;SDS011;7246;51.922;4.488;2022-07-23T09:16:45;1108.3;;;975.3;;
14324;SDS011;7246;51.922;4.488;2022-07-23T09:18:46;1080.0;;;969.7;;
14324;SDS011;7246;51.922;4.488;2022-07-23T09:20:45;1077.5;;;985.7;;
14324;SDS011;7246;51.922;4.488;2022-07-23T09:22:45;1037.4;;;960.9;;
14324;SDS011;7246;51.922;4.488;2022-07-23T09:25:02;1023.1;;;947.6;;
14324;SDS011;7246;51.922;4.488;2022-07-23T09:26:45;1028.5;;;957.9;;
14324;SDS011;7246;51.922;4.488;2022-07-23T09:28:49;1056.7;;;999.4;;
14324;SDS011;7246;51.922;4.488;2022-07-23T09:30:45;1037.7;;;985.3;;
14324;SDS011;7246;51.922;4.488;2022-07-23T09:32:51;1033.0;;;983.8;;
14324;SDS011;7246;51.922;4.488;2022-07-23T09:34:45;1037.2;;;987.7;;
14324;SDS011;7246;51.922;4.488;2022-07-23T09:36:45;1026.4;;;977.5;;
14324;SDS011;7246;51.922;4.488;2022-07-23T09:38:49;1052.8;;;997.8;;
14324;SDS011;7246;51.922;4.488;2022-07-23T09:40:45;1030.4;;;981.3;;
14324;SDS011;7246;51.922;4.488;2022-07-23T09:42:50;1038.5;;;988.3;;
14324;SDS011;7246;51.922;4.488;2022-07-23T09:44:45;1019.6;;;971.0;;
14324;SDS011;7246;51.922;4.488;2022-07-23T09:46:45;1022.5;;;973.8;;
14324;SDS011;7246;51.922;4.488;2022-07-23T09:48:45;981.9;;;935.1;;
14324;SDS011;7246;51.922;4.488;2022-07-23T09:50:45;946.7;;;901.6;;
14324;SDS011;7246;51.922;4.488;2022-07-23T09:52:47;972.6;;;926.2;;
14324;SDS011;7246;51.922;4.488;2022-07-23T09:54:45;987.1;;;940.1;;
14324;SDS011;7246;51.922;4.488;2022-07-23T09:56:45;989.8;;;942.6;;
14324;SDS011;7246;51.922;4.488;2022-07-23T09:58:45;982.2;;;935.4;;
14324;SDS011;7246;51.922;4.488;2022-07-23T10:00:45;987.4;;;940.4;;
14324;SDS011;7246;51.922;4.488;2022-07-23T10:02:45;1005.2;;;957.3;;
14324;SDS011;7246;51.922;4.488;2022-07-23T10:04:45;979.0;;;932.3;;
14324;SDS011;7246;51.922;4.488;2022-07-23T10:06:45;1003.6;;;952.4;;
14324;SDS011;7246;51.922;4.488;2022-07-23T10:08:45;970.3;;;924.1;;
14324;SDS011;7246;51.922;4.488;2022-07-23T10:10:46;961.6;;;915.7;;
14324;SDS011;7246;51.922;4.488;2022-07-23T10:12:45;967.2;;;921.1;;
14324;SDS011;7246;51.922;4.488;2022-07-23T10:14:45;997.6;;;950.0;;
14324;SDS011;7246;51.922;4.488;2022-07-23T10:16:45;1061.8;;;997.8;;
14324;SDS011;7246;51.922;4.488;2022-07-23T10:18:45;1050.3;;;998.3;;
14324;SDS011;7246;51.922;4.488;2022-07-23T10:20:46;1050.7;;;998.3;;
14324;SDS011;7246;51.922;4.488;2022-07-23T10:22:51;1069.0;;;999.9;;
14324;SDS011;7246;51.922;4.488;2022-07-23T10:24:47;1035.5;;;984.5;;
14324;SDS011;7246;51.922;4.488;2022-07-23T10:26:48;1010.9;;;962.7;;
14324;SDS011;7246;51.922;4.488;2022-07-23T10:28:49;1012.0;;;963.8;;
14324;SDS011;7246;51.922;4.488;2022-07-23T10:30:48;1010.6;;;962.5;;
14324;SDS011;7246;51.922;4.488;2022-07-23T10:32:49;1045.1;;;991.2;;
14324;SDS011;7246;51.922;4.488;2022-07-23T10:34:48;1040.7;;;991.1;;
14324;SDS011;7246;51.922;4.488;2022-07-23T10:36:47;1044.6;;;994.4;;
14324;SDS011;7246;51.922;4.488;2022-07-23T10:38:48;1061.5;;;999.5;;
14324;SDS011;7246;51.922;4.488;2022-07-23T10:40:55;1062.6;;;999.9;;
14324;SDS011;7246;51.922;4.488;2022-07-23T10:42:46;1069.4;;;999.9;;
14324;SDS011;7246;51.922;4.488;2022-07-23T10:44:46;1061.7;;;999.9;;
14324;SDS011;7246;51.922;4.488;2022-07-23T10:46:54;1050.4;;;996.9;;
14324;SDS011;7246;51.922;4.488;2022-07-23T10:48:46;1059.7;;;999.9;;
14324;SDS011;7246;51.922;4.488;2022-07-23T10:51:05;1060.8;;;999.7;;
14324;SDS011;7246;51.922;4.488;2022-07-23T10:54:46;1079.3;;;999.9;;
14324;SDS011;7246;51.922;4.488;2022-07-23T10:56:49;1066.0;;;999.8;;
14324;SDS011;7246;51.922;4.488;2022-07-23T10:58:47;1068.5;;;999.1;;
14324;SDS011;7246;51.922;4.488;2022-07-23T11:00:46;1065.6;;;999.9;;
14324;SDS011;7246;51.922;4.488;2022-07-23T11:02:47;1104.4;;;999.9;;
14324;SDS011;7246;51.922;4.488;2022-07-23T11:04:50;1125.0;;;999.9;;
14324;SDS011;7246;51.922;4.488;2022-07-23T11:08:46;1142.1;;;999.9;;
14324;SDS011;7246;51.922;4.488;2022-07-23T11:10:47;1132.6;;;999.9;;
14324;SDS011;7246;51.922;4.488;2022-07-23T11:12:46;1137.7;;;999.9;;
14324;SDS011;7246;51.922;4.488;2022-07-23T11:16:46;1138.1;;;999.9;;
14324;SDS011;7246;51.922;4.488;2022-07-23T11:18:55;1131.4;;;999.9;;
14324;SDS011;7246;51.922;4.488;2022-07-23T11:20:46;1126.3;;;999.9;;
14324;SDS011;7246;51.922;4.488;2022-07-23T11:22:47;1146.0;;;999.9;;
14324;SDS011;7246;51.922;4.488;2022-07-23T11:24:50;1136.8;;;999.9;;
14324;SDS011;7246;51.922;4.488;2022-07-23T11:26:48;1146.4;;;999.9;;
14324;SDS011;7246;51.922;4.488;2022-07-23T11:28:46;1131.6;;;999.9;;
14324;SDS011;7246;51.922;4.488;2022-07-23T11:30:46;1128.0;;;999.9;;
14324;SDS011;7246;51.922;4.488;2022-07-23T11:32:46;1135.1;;;999.9;;
14324;SDS011;7246;51.922;4.488;2022-07-23T11:34:47;1159.4;;;999.9;;
14324;SDS011;7246;51.922;4.488;2022-07-23T11:36:48;1144.2;;;999.9;;
14324;SDS011;7246;51.922;4.488;2022-07-23T11:38:46;1131.3;;;999.9;;
14324;SDS011;7246;51.922;4.488;2022-07-23T11:40:47;1134.1;;;999.9;;
14324;SDS011;7246;51.922;4.488;2022-07-23T11:42:55;1128.2;;;999.9;;
14324;SDS011;7246;51.922;4.488;2022-07-23T11:44:46;1137.3;;;999.9;;
14324;SDS011;7246;51.922;4.488;2022-07-23T11:46:53;1149.8;;;999.9;;
14324;SDS011;7246;51.922;4.488;2022-07-23T11:48:46;1134.5;;;999.9;;
14324;SDS011;7246;51.922;4.488;2022-07-23T11:50:47;1148.8;;;999.9;;
14324;SDS011;7246;51.922;4.488;2022-07-23T11:52:46;1147.1;;;999.9;;